createdAt,value
2024-01-24T00:00:29.373Z,1008.82
2024-01-24T00:01:29.381Z,1008.65
2024-01-24T00:02:29.364Z,1008.66
2024-01-24T00:03:29.362Z,1008.59
2024-01-24T00:04:29.397Z,1008.46
2024-01-24T00:05:29.386Z,1008.37
2024-01-24T00:06:29.306Z,1008.38
2024-01-24T00:07:29.314Z,1008.40
2024-01-24T00:08:29.303Z,1008.31
2024-01-24T00:09:29.310Z,1008.35
2024-01-24T00:10:29.272Z,1008.34
2024-01-24T00:11:29.249Z,1008.13
2024-01-24T00:12:29.277Z,1008.12
2024-01-24T00:13:29.226Z,1008.03
2024-01-24T00:14:29.211Z,1007.98
2024-01-24T00:15:29.282Z,1007.90
2024-01-24T00:16:29.794Z,1007.99
2024-01-24T00:17:29.215Z,1008.04
2024-01-24T00:18:29.386Z,1007.99
2024-01-24T00:19:29.276Z,1008.00
2024-01-24T00:20:29.140Z,1007.93
2024-01-24T00:21:29.267Z,1008.05
2024-01-24T00:22:29.129Z,1008.13
2024-01-24T00:23:29.111Z,1008.08
2024-01-24T00:24:29.127Z,1008.02
2024-01-24T00:25:29.117Z,1007.93
2024-01-24T00:26:29.519Z,1008.10
2024-01-24T00:27:29.104Z,1008.07
2024-01-24T00:28:29.064Z,1008.09
2024-01-24T00:29:29.057Z,1008.18
2024-01-24T00:30:29.145Z,1008.21
2024-01-24T00:31:29.083Z,1008.15
2024-01-24T00:32:29.077Z,1008.07
2024-01-24T00:33:29.060Z,1007.99
2024-01-24T00:34:29.041Z,1007.94
2024-01-24T00:35:29.030Z,1007.80
2024-01-24T00:36:28.995Z,1007.93
2024-01-24T00:37:29.005Z,1007.89
2024-01-24T00:38:28.959Z,1007.81
2024-01-24T00:39:29.010Z,1007.83
2024-01-24T00:40:28.939Z,1007.80
2024-01-24T00:41:28.945Z,1007.90
2024-01-24T00:42:28.956Z,1008.06
2024-01-24T00:43:28.926Z,1007.93
2024-01-24T00:44:28.931Z,1008.05
2024-01-24T00:45:28.913Z,1008.07
2024-01-24T00:46:28.902Z,1008.10
2024-01-24T00:47:28.878Z,1008.09
2024-01-24T00:48:28.900Z,1008.00
2024-01-24T00:49:28.978Z,1007.94
2024-01-24T00:50:28.834Z,1007.85
2024-01-24T00:51:28.910Z,1007.79
2024-01-24T00:52:28.828Z,1007.80
2024-01-24T00:53:28.856Z,1007.69
2024-01-24T00:54:28.816Z,1007.69
2024-01-24T00:55:28.783Z,1007.55
2024-01-24T00:56:28.814Z,1007.47
2024-01-24T00:57:28.776Z,1007.60
2024-01-24T00:58:28.782Z,1007.48
2024-01-24T00:59:28.740Z,1007.48
2024-01-24T01:00:28.744Z,1007.54
2024-01-24T01:01:28.723Z,1007.53
2024-01-24T01:02:28.743Z,1007.44
2024-01-24T01:03:28.789Z,1007.55
2024-01-24T01:04:28.702Z,1007.58
2024-01-24T01:05:28.688Z,1007.79
2024-01-24T01:06:28.729Z,1007.69
2024-01-24T01:07:28.667Z,1007.62
2024-01-24T01:08:28.675Z,1007.59
2024-01-24T01:09:29.015Z,1007.74
2024-01-24T01:10:28.643Z,1007.64
2024-01-24T01:11:28.617Z,1007.58
2024-01-24T01:12:28.692Z,1007.56
2024-01-24T01:13:28.586Z,1007.60
2024-01-24T01:14:29.026Z,1007.45
2024-01-24T01:15:28.598Z,1007.45
2024-01-24T01:16:28.619Z,1007.56
2024-01-24T01:17:28.550Z,1007.56
2024-01-24T01:18:28.604Z,1007.56
2024-01-24T01:19:28.530Z,1007.62
2024-01-24T01:20:28.534Z,1007.64
2024-01-24T01:21:28.580Z,1007.57
2024-01-24T01:22:28.551Z,1007.59
2024-01-24T01:23:28.497Z,1007.61
2024-01-24T01:24:28.498Z,1007.69
2024-01-24T01:25:28.468Z,1007.65
2024-01-24T01:26:28.463Z,1007.60
2024-01-24T01:27:28.484Z,1007.56
2024-01-24T01:28:28.449Z,1007.67
2024-01-24T01:29:28.406Z,1007.67
2024-01-24T01:30:28.488Z,1007.69
2024-01-24T01:31:28.405Z,1007.72
2024-01-24T01:32:28.472Z,1007.68
2024-01-24T01:33:28.600Z,1007.76
2024-01-24T01:34:28.575Z,1007.68
2024-01-24T01:35:28.377Z,1007.84
2024-01-24T01:36:28.373Z,1007.65
2024-01-24T01:37:28.350Z,1007.51
2024-01-24T01:38:28.358Z,1007.60
2024-01-24T01:39:28.347Z,1007.53
2024-01-24T01:40:28.322Z,1007.48
2024-01-24T01:41:28.306Z,1007.55
2024-01-24T01:42:28.361Z,1007.59
2024-01-24T01:43:28.313Z,1007.69
2024-01-24T01:44:28.378Z,1007.56
2024-01-24T01:45:28.287Z,1007.66
2024-01-24T01:46:28.268Z,1007.58
2024-01-24T01:47:28.233Z,1007.61
2024-01-24T01:48:28.455Z,1007.78
2024-01-24T01:49:28.325Z,1007.67
2024-01-24T01:50:28.220Z,1007.57
2024-01-24T01:51:28.303Z,1007.66
2024-01-24T01:52:28.181Z,1007.60
2024-01-24T01:53:28.183Z,1007.58
2024-01-24T01:54:28.176Z,1007.61
2024-01-24T01:55:28.160Z,1007.62
2024-01-24T01:56:28.163Z,1007.53
2024-01-24T01:57:28.180Z,1007.63
2024-01-24T01:58:28.140Z,1007.61
2024-01-24T01:59:28.110Z,1007.61
2024-01-24T02:00:28.220Z,1007.65
2024-01-24T02:01:28.305Z,1007.66
2024-01-24T02:02:28.113Z,1007.54
2024-01-24T02:03:28.220Z,1007.65
2024-01-24T02:04:28.157Z,1007.68
2024-01-24T02:05:28.072Z,1007.83
2024-01-24T02:06:28.194Z,1007.70
2024-01-24T02:07:28.160Z,1007.65
2024-01-24T02:08:28.040Z,1007.56
2024-01-24T02:09:28.069Z,1007.62
2024-01-24T02:10:28.009Z,1007.57
2024-01-24T02:11:27.991Z,1007.52
2024-01-24T02:12:28.044Z,1007.56
2024-01-24T02:13:27.976Z,1007.59
2024-01-24T02:14:27.955Z,1007.43
2024-01-24T02:15:28.040Z,1007.57
2024-01-24T02:16:27.936Z,1007.50
2024-01-24T02:17:27.955Z,1007.50
2024-01-24T02:18:28.027Z,1007.38
2024-01-24T02:19:27.932Z,1007.44
2024-01-24T02:20:27.879Z,1007.42
2024-01-24T02:21:27.901Z,1007.44
2024-01-24T02:22:27.891Z,1007.34
2024-01-24T02:23:27.952Z,1007.27
2024-01-24T02:24:27.867Z,1007.25
2024-01-24T02:25:27.845Z,1007.28
2024-01-24T02:26:27.837Z,1007.33
2024-01-24T02:27:27.828Z,1007.31
2024-01-24T02:28:27.798Z,1007.25
2024-01-24T02:29:27.808Z,1007.27
2024-01-24T02:30:27.809Z,1007.20
2024-01-24T02:31:27.780Z,1007.19
2024-01-24T02:32:27.788Z,1007.10
2024-01-24T02:33:27.832Z,1007.20
2024-01-24T02:34:27.855Z,1007.15
2024-01-24T02:35:27.766Z,1007.11
2024-01-24T02:36:27.871Z,1007.00
2024-01-24T02:37:27.699Z,1007.14
2024-01-24T02:38:27.709Z,1007.06
2024-01-24T02:39:27.754Z,1007.25
2024-01-24T02:40:27.672Z,1007.18
2024-01-24T02:41:27.702Z,1007.28
2024-01-24T02:42:27.664Z,1007.38
2024-01-24T02:43:27.660Z,1007.29
2024-01-24T02:44:27.623Z,1007.12
2024-01-24T02:45:27.697Z,1007.03
2024-01-24T02:46:27.629Z,1007.10
2024-01-24T02:47:27.632Z,1007.18
2024-01-24T02:48:27.632Z,1007.10
2024-01-24T02:49:27.769Z,1007.08
2024-01-24T02:50:27.581Z,1007.00
2024-01-24T02:51:27.603Z,1006.96
2024-01-24T02:52:27.555Z,1006.90
2024-01-24T02:53:27.561Z,1006.98
2024-01-24T02:54:27.549Z,1006.93
2024-01-24T02:55:27.521Z,1006.74
2024-01-24T02:56:27.515Z,1006.86
2024-01-24T02:57:27.498Z,1006.79
2024-01-24T02:58:27.500Z,1006.87
2024-01-24T02:59:27.462Z,1007.34
2024-01-24T03:00:27.479Z,1007.10
2024-01-24T03:01:27.537Z,1006.97
2024-01-24T03:02:27.447Z,1007.02
2024-01-24T03:03:27.475Z,1006.80
2024-01-24T03:04:27.498Z,1006.89
2024-01-24T03:05:27.423Z,1006.80
2024-01-24T03:06:27.478Z,1007.00
2024-01-24T03:07:27.490Z,1006.74
2024-01-24T03:08:27.396Z,1006.94
2024-01-24T03:09:27.422Z,1006.92
2024-01-24T03:10:27.358Z,1006.85
2024-01-24T03:11:27.374Z,1006.91
2024-01-24T03:12:27.366Z,1006.88
2024-01-24T03:13:27.394Z,1007.00
2024-01-24T03:14:27.333Z,1006.92
2024-01-24T03:15:27.333Z,1006.83
2024-01-24T03:16:27.293Z,1006.93
2024-01-24T03:17:27.349Z,1006.80
2024-01-24T03:18:27.330Z,1006.78
2024-01-24T03:19:27.421Z,1006.89
2024-01-24T03:20:27.249Z,1006.87
2024-01-24T03:21:27.282Z,1006.78
2024-01-24T03:22:27.236Z,1006.81
2024-01-24T03:23:27.243Z,1006.84
2024-01-24T03:24:27.264Z,1006.86
2024-01-24T03:25:27.183Z,1006.80
2024-01-24T03:26:27.245Z,1006.87
2024-01-24T03:27:27.213Z,1006.80
2024-01-24T03:28:27.165Z,1006.73
2024-01-24T03:29:27.189Z,1006.69
2024-01-24T03:30:27.190Z,1006.72
2024-01-24T03:31:27.140Z,1006.84
2024-01-24T03:32:27.164Z,1006.89
2024-01-24T03:33:27.148Z,1006.82
2024-01-24T03:34:27.170Z,1006.83
2024-01-24T03:35:27.093Z,1007.00
2024-01-24T03:36:27.153Z,1007.07
2024-01-24T03:37:27.078Z,1007.08
2024-01-24T03:38:27.094Z,1007.21
2024-01-24T03:39:27.113Z,1007.23
2024-01-24T03:40:27.043Z,1007.25
2024-01-24T03:41:27.018Z,1007.45
2024-01-24T03:42:27.045Z,1007.24
2024-01-24T03:43:27.061Z,1007.38
2024-01-24T03:44:27.014Z,1007.34
2024-01-24T03:45:27.008Z,1007.22
2024-01-24T03:46:27.140Z,1007.24
2024-01-24T03:47:27.008Z,1007.27
2024-01-24T03:48:27.050Z,1006.98
2024-01-24T03:49:27.072Z,1007.33
2024-01-24T03:50:26.940Z,1007.25
2024-01-24T03:51:26.963Z,1007.29
2024-01-24T03:52:26.920Z,1007.18
2024-01-24T03:53:26.978Z,1007.24
2024-01-24T03:54:26.900Z,1007.14
2024-01-24T03:55:26.899Z,1007.17
2024-01-24T03:56:26.906Z,1007.14
2024-01-24T03:57:26.924Z,1007.24
2024-01-24T03:58:26.856Z,1007.09
2024-01-24T03:59:26.901Z,1007.24
2024-01-24T04:00:26.892Z,1007.29
2024-01-24T04:01:26.909Z,1007.52
2024-01-24T04:02:26.800Z,1007.50
2024-01-24T04:03:26.909Z,1007.54
2024-01-24T04:04:26.889Z,1007.47
2024-01-24T04:05:26.804Z,1007.39
2024-01-24T04:06:26.904Z,1007.68
2024-01-24T04:07:26.867Z,1007.65
2024-01-24T04:08:26.754Z,1007.59
2024-01-24T04:09:26.834Z,1007.42
2024-01-24T04:10:26.741Z,1007.41
2024-01-24T04:11:26.776Z,1007.48
2024-01-24T04:12:27.183Z,1007.47
2024-01-24T04:13:26.700Z,1007.44
2024-01-24T04:14:26.687Z,1007.43
2024-01-24T04:15:26.762Z,1007.44
2024-01-24T04:16:26.679Z,1007.44
2024-01-24T04:17:26.761Z,1007.40
2024-01-24T04:18:26.758Z,1007.42
2024-01-24T04:19:26.737Z,1007.57
2024-01-24T04:20:26.611Z,1007.36
2024-01-24T04:21:26.638Z,1007.50
2024-01-24T04:22:26.617Z,1007.38
2024-01-24T04:23:26.634Z,1007.41
2024-01-24T04:24:26.630Z,1007.40
2024-01-24T04:25:26.561Z,1007.58
2024-01-24T04:26:26.572Z,1007.49
2024-01-24T04:27:26.559Z,1007.31
2024-01-24T04:28:26.554Z,1007.12
2024-01-24T04:29:26.567Z,1007.22
2024-01-24T04:30:26.588Z,1007.33
2024-01-24T04:31:26.515Z,1007.50
2024-01-24T04:32:26.522Z,1007.39
2024-01-24T04:33:26.655Z,1007.46
2024-01-24T04:34:26.665Z,1007.42
2024-01-24T04:35:26.475Z,1007.62
2024-01-24T04:36:26.473Z,1007.63
2024-01-24T04:37:26.455Z,1007.74
2024-01-24T04:38:26.461Z,1007.76
2024-01-24T04:39:26.474Z,1007.78
2024-01-24T04:40:26.439Z,1007.75
2024-01-24T04:41:26.418Z,1007.82
2024-01-24T04:42:26.486Z,1007.86
2024-01-24T04:43:26.412Z,1008.04
2024-01-24T04:44:26.393Z,1007.92
2024-01-24T04:45:26.400Z,1007.83
2024-01-24T04:46:26.350Z,1007.88
2024-01-24T04:47:26.362Z,1007.98
2024-01-24T04:48:26.445Z,1008.02
2024-01-24T04:49:34.890Z,1007.99
2024-01-24T04:50:26.410Z,1008.00
2024-01-24T04:51:26.314Z,1007.88
2024-01-24T04:52:26.282Z,1007.84
2024-01-24T04:53:26.299Z,1007.92
2024-01-24T04:54:26.282Z,1007.99
2024-01-24T04:55:26.255Z,1007.91
2024-01-24T04:56:26.253Z,1007.91
2024-01-24T04:57:26.306Z,1007.95
2024-01-24T04:58:26.229Z,1007.85
2024-01-24T04:59:26.218Z,1007.88
2024-01-24T05:00:26.202Z,1007.86
2024-01-24T05:01:26.285Z,1007.92
2024-01-24T05:02:26.183Z,1007.91
2024-01-24T05:03:26.197Z,1007.86
2024-01-24T05:04:26.167Z,1007.92
2024-01-24T05:05:26.181Z,1007.80
2024-01-24T05:06:26.242Z,1007.97
2024-01-24T05:07:26.154Z,1007.88
2024-01-24T05:08:26.117Z,1007.95
2024-01-24T05:09:26.122Z,1007.79
2024-01-24T05:10:26.090Z,1007.78
2024-01-24T05:11:26.077Z,1007.78
2024-01-24T05:12:26.118Z,1007.87
2024-01-24T05:13:26.070Z,1007.87
2024-01-24T05:14:26.028Z,1007.91
2024-01-24T05:15:26.061Z,1008.00
2024-01-24T05:16:26.032Z,1008.01
2024-01-24T05:17:26.044Z,1008.04
2024-01-24T05:18:26.154Z,1008.03
2024-01-24T05:19:26.059Z,1008.05
2024-01-24T05:20:26.000Z,1008.11
2024-01-24T05:21:26.001Z,1008.18
2024-01-24T05:22:26.007Z,1008.11
2024-01-24T05:23:25.960Z,1008.27
2024-01-24T05:24:25.953Z,1008.31
2024-01-24T05:25:25.928Z,1008.38
2024-01-24T05:26:25.930Z,1008.26
2024-01-24T05:27:25.936Z,1008.24
2024-01-24T05:28:25.937Z,1008.31
2024-01-24T05:29:25.924Z,1008.26
2024-01-24T05:30:35.001Z,1008.49
2024-01-24T05:31:25.918Z,1008.54
2024-01-24T05:32:25.888Z,1008.58
2024-01-24T05:33:25.922Z,1008.54
2024-01-24T05:34:25.936Z,1008.58
2024-01-24T05:35:25.857Z,1008.59
2024-01-24T05:36:25.843Z,1008.48
2024-01-24T05:37:25.804Z,1008.42
2024-01-24T05:38:25.823Z,1008.46
2024-01-24T05:39:25.814Z,1008.46
2024-01-24T05:40:25.793Z,1008.53
2024-01-24T05:41:25.758Z,1008.52
2024-01-24T05:42:25.758Z,1008.67
2024-01-24T05:43:25.733Z,1008.69
2024-01-24T05:44:25.738Z,1008.94
2024-01-24T05:45:25.751Z,1008.58
2024-01-24T05:46:25.711Z,1008.90
2024-01-24T05:47:26.503Z,1009.02
2024-01-24T05:48:25.843Z,1008.88
2024-01-24T05:49:25.913Z,1008.81
2024-01-24T05:50:25.674Z,1009.04
2024-01-24T05:51:25.756Z,1009.05
2024-01-24T05:52:25.639Z,1008.85
2024-01-24T05:53:25.655Z,1008.88
2024-01-24T05:54:25.665Z,1009.12
2024-01-24T05:55:25.655Z,1009.13
2024-01-24T05:56:25.642Z,1009.23
2024-01-24T05:57:25.673Z,1009.11
2024-01-24T05:58:25.598Z,1009.04
2024-01-24T05:59:25.578Z,1008.96
2024-01-24T06:00:25.675Z,1009.31
2024-01-24T06:01:25.690Z,1009.31
2024-01-24T06:02:25.566Z,1009.14
2024-01-24T06:03:25.572Z,1009.25
2024-01-24T06:04:25.672Z,1009.21
2024-01-24T06:05:25.587Z,1009.56
2024-01-24T06:06:25.649Z,1009.44
2024-01-24T06:07:25.694Z,1009.36
2024-01-24T06:08:25.485Z,1009.25
2024-01-24T06:09:25.477Z,1009.33
2024-01-24T06:10:25.461Z,1009.24
2024-01-24T06:11:25.441Z,1009.35
2024-01-24T06:12:25.471Z,1009.30
2024-01-24T06:13:25.451Z,1009.32
2024-01-24T06:14:25.429Z,1009.30
2024-01-24T06:15:25.447Z,1009.41
2024-01-24T06:16:25.405Z,1009.45
2024-01-24T06:17:25.419Z,1009.33
2024-01-24T06:18:25.449Z,1009.33
2024-01-24T06:19:25.578Z,1009.20
2024-01-24T06:20:25.356Z,1009.10
2024-01-24T06:21:25.369Z,1009.12
2024-01-24T06:22:25.326Z,1009.18
2024-01-24T06:23:25.317Z,1009.29
2024-01-24T06:24:25.329Z,1009.21
2024-01-24T06:25:25.314Z,1009.20
2024-01-24T06:26:25.298Z,1009.18
2024-01-24T06:27:25.273Z,1009.20
2024-01-24T06:28:25.272Z,1009.27
2024-01-24T06:30:15.157Z,1009.40
2024-01-24T06:30:29.648Z,1009.30
2024-01-24T06:31:25.280Z,1009.45
2024-01-24T06:32:25.242Z,1009.36
2024-01-24T06:33:25.403Z,1009.56
2024-01-24T06:34:25.389Z,1009.63
2024-01-24T06:35:25.205Z,1009.50
2024-01-24T06:36:25.218Z,1009.52
2024-01-24T06:37:25.160Z,1009.31
2024-01-24T06:38:25.154Z,1009.50
2024-01-24T06:39:25.215Z,1009.60
2024-01-24T06:40:25.152Z,1009.52
2024-01-24T06:41:25.126Z,1009.60
2024-01-24T06:42:25.124Z,1009.71
2024-01-24T06:43:25.152Z,1009.69
2024-01-24T06:44:25.107Z,1009.66
2024-01-24T06:45:25.450Z,1009.79
2024-01-24T06:46:25.102Z,1009.72
2024-01-24T06:47:25.098Z,1009.76
2024-01-24T06:48:25.106Z,1009.76
2024-01-24T06:49:25.124Z,1009.92
2024-01-24T06:50:25.063Z,1009.77
2024-01-24T06:51:25.039Z,1009.84
2024-01-24T06:52:25.013Z,1009.80
2024-01-24T06:53:25.020Z,1009.91
2024-01-24T06:54:25.034Z,1009.75
2024-01-24T06:55:24.998Z,1010.02
2024-01-24T06:56:24.970Z,1009.87
2024-01-24T06:57:25.024Z,1010.02
2024-01-24T06:58:24.942Z,1009.78
2024-01-24T06:59:24.957Z,1009.91
2024-01-24T07:00:24.963Z,1009.89
2024-01-24T07:01:24.941Z,1010.19
2024-01-24T07:02:24.846Z,1009.95
2024-01-24T07:03:24.926Z,1010.06
2024-01-24T07:04:24.887Z,1010.00
2024-01-24T07:05:24.822Z,1009.96
2024-01-24T07:06:24.909Z,1010.09
2024-01-24T07:07:24.867Z,1009.91
2024-01-24T07:08:24.778Z,1010.05
2024-01-24T07:10:44.649Z,1010.33
2024-01-24T07:11:45.486Z,1010.32
2024-01-24T07:12:45.577Z,1010.29
2024-01-24T07:13:45.494Z,1010.34
2024-01-24T07:14:45.449Z,1010.44
2024-01-24T07:15:45.508Z,1010.45
2024-01-24T07:16:45.470Z,1010.44
2024-01-24T07:17:45.566Z,1010.44
2024-01-24T07:18:45.492Z,1010.49
2024-01-24T07:19:45.482Z,1010.56
2024-01-24T07:20:45.417Z,1010.56
2024-01-24T07:21:45.405Z,1010.53
2024-01-24T07:22:45.402Z,1010.70
2024-01-24T07:23:45.363Z,1010.74
2024-01-24T07:24:45.570Z,1010.71
2024-01-24T07:25:45.359Z,1010.64
2024-01-24T07:26:45.355Z,1010.76
2024-01-24T07:27:45.384Z,1010.80
2024-01-24T07:28:45.318Z,1010.76
2024-01-24T07:29:45.314Z,1010.81
2024-01-24T07:30:45.334Z,1010.80
2024-01-24T07:31:45.355Z,1010.80
2024-01-24T07:32:45.311Z,1010.62
2024-01-24T07:33:45.374Z,1010.78
2024-01-24T07:34:45.325Z,1010.92
2024-01-24T07:35:45.266Z,1010.89
2024-01-24T07:36:45.312Z,1010.94
2024-01-24T07:37:45.286Z,1011.09
2024-01-24T07:38:45.215Z,1010.93
2024-01-24T07:39:45.221Z,1011.00
2024-01-24T07:40:45.215Z,1010.93
2024-01-24T07:41:45.200Z,1011.26
2024-01-24T07:42:45.238Z,1010.94
2024-01-24T07:43:45.176Z,1011.20
2024-01-24T07:44:45.184Z,1011.20
2024-01-24T07:45:45.161Z,1011.30
2024-01-24T07:46:45.158Z,1011.14
2024-01-24T07:47:45.212Z,1011.19
2024-01-24T07:48:45.224Z,1011.16
2024-01-24T07:49:45.363Z,1011.11
2024-01-24T07:50:45.109Z,1011.09
2024-01-24T07:51:45.117Z,1010.98
2024-01-24T07:52:45.193Z,1011.25
2024-01-24T07:53:45.068Z,1011.16
2024-01-24T07:54:45.093Z,1011.25
2024-01-24T07:55:53.600Z,1011.20
2024-01-24T07:56:45.042Z,1011.38
2024-01-24T07:57:45.244Z,1011.35
2024-01-24T07:58:45.135Z,1011.23
2024-01-24T07:59:45.033Z,1011.37
2024-01-24T08:00:45.012Z,1011.39
2024-01-24T08:01:45.178Z,1011.50
2024-01-24T08:02:44.980Z,1011.66
2024-01-24T08:03:45.719Z,1011.47
2024-01-24T08:04:45.082Z,1011.55
2024-01-24T08:05:44.993Z,1011.43
2024-01-24T08:06:44.966Z,1011.48
2024-01-24T08:07:44.937Z,1011.42
2024-01-24T08:08:44.940Z,1011.51
2024-01-24T08:09:44.953Z,1011.55
2024-01-24T08:10:44.888Z,1011.46
2024-01-24T08:11:44.872Z,1011.63
2024-01-24T08:12:44.937Z,1011.50
2024-01-24T08:13:44.895Z,1011.61
2024-01-24T08:14:44.832Z,1011.70
2024-01-24T08:15:44.860Z,1011.67
2024-01-24T08:16:44.849Z,1011.72
2024-01-24T08:17:44.881Z,1011.70
2024-01-24T08:18:44.853Z,1011.74
2024-01-24T08:19:44.871Z,1011.77
2024-01-24T08:20:44.787Z,1011.77
2024-01-24T08:21:44.819Z,1011.79
2024-01-24T08:22:44.787Z,1011.68
2024-01-24T08:23:49.534Z,1011.72
2024-01-24T08:24:44.789Z,1011.79
2024-01-24T08:25:44.768Z,1011.65
2024-01-24T08:26:46.882Z,1011.63
2024-01-24T08:27:44.786Z,1011.50
2024-01-24T08:28:44.808Z,1011.70
2024-01-24T08:29:44.702Z,1011.84
2024-01-24T08:30:44.740Z,1011.80
2024-01-24T08:31:44.697Z,1011.90
2024-01-24T08:32:44.748Z,1011.73
2024-01-24T08:33:46.501Z,1011.92
2024-01-24T08:34:44.729Z,1011.74
2024-01-24T08:35:44.655Z,1011.94
2024-01-24T08:36:44.665Z,1011.89
2024-01-24T08:37:44.610Z,1011.89
2024-01-24T08:38:44.626Z,1011.81
2024-01-24T08:39:44.710Z,1011.96
2024-01-24T08:40:44.614Z,1011.88
2024-01-24T08:41:44.576Z,1012.02
2024-01-24T08:42:44.575Z,1011.95
2024-01-24T08:43:44.550Z,1011.93
2024-01-24T08:44:44.538Z,1012.04
2024-01-24T08:45:44.845Z,1012.13
2024-01-24T08:46:44.517Z,1012.13
2024-01-24T08:47:44.566Z,1012.13
2024-01-24T08:48:44.603Z,1012.25
2024-01-24T08:49:44.559Z,1012.25
2024-01-24T08:50:44.486Z,1012.10
2024-01-24T08:51:44.519Z,1012.16
2024-01-24T08:52:44.451Z,1012.11
2024-01-24T08:53:44.481Z,1012.11
2024-01-24T08:55:44.467Z,1012.18
2024-01-24T08:56:44.407Z,1012.18
2024-01-24T08:57:44.435Z,1012.24
2024-01-24T08:58:44.427Z,1012.36
2024-01-24T08:59:44.395Z,1012.31
2024-01-24T09:00:44.409Z,1012.23
2024-01-24T09:01:44.522Z,1012.42
2024-01-24T09:02:44.380Z,1012.46
2024-01-24T09:03:44.393Z,1012.44
2024-01-24T09:04:44.563Z,1012.46
2024-01-24T09:05:44.345Z,1012.54
2024-01-24T09:06:44.599Z,1012.54
2024-01-24T09:07:44.437Z,1012.85
2024-01-24T09:08:44.318Z,1012.72
2024-01-24T09:09:44.596Z,1012.81
2024-01-24T09:10:44.280Z,1012.84
2024-01-24T09:11:50.666Z,1012.63
2024-01-24T09:12:44.359Z,1012.68
2024-01-24T09:13:44.253Z,1012.60
2024-01-24T09:14:44.259Z,1012.60
2024-01-24T09:15:44.291Z,1012.74
2024-01-24T09:16:44.191Z,1012.50
2024-01-24T09:17:44.259Z,1012.63
2024-01-24T09:18:44.355Z,1012.62
2024-01-24T09:19:44.243Z,1012.64
2024-01-24T09:20:44.157Z,1012.55
2024-01-24T09:21:44.217Z,1012.60
2024-01-24T09:22:44.151Z,1012.64
2024-01-24T09:23:44.167Z,1012.69
2024-01-24T09:24:44.125Z,1012.71
2024-01-24T09:25:44.115Z,1012.69
2024-01-24T09:26:44.110Z,1012.64
2024-01-24T09:27:44.178Z,1012.87
2024-01-24T09:28:44.078Z,1012.77
2024-01-24T09:29:44.132Z,1012.90
2024-01-24T09:30:44.800Z,1012.89
2024-01-24T09:31:44.055Z,1012.91
2024-01-24T09:32:44.186Z,1013.14
2024-01-24T09:33:44.224Z,1013.18
2024-01-24T09:34:44.573Z,1013.23
2024-01-24T09:35:44.160Z,1013.12
2024-01-24T09:36:44.052Z,1012.86
2024-01-24T09:37:44.007Z,1012.96
2024-01-24T09:38:43.970Z,1012.96
2024-01-24T09:39:44.011Z,1013.13
2024-01-24T09:40:43.997Z,1013.08
2024-01-24T09:41:43.951Z,1013.05
2024-01-24T09:42:44.072Z,1013.11
2024-01-24T09:43:43.981Z,1013.09
2024-01-24T09:44:43.916Z,1013.14
2024-01-24T09:45:43.976Z,1013.14
2024-01-24T09:46:43.899Z,1013.19
2024-01-24T09:47:45.330Z,1013.11
2024-01-24T09:48:43.957Z,1013.09
2024-01-24T09:49:43.973Z,1013.09
2024-01-24T09:50:43.872Z,1013.25
2024-01-24T09:51:43.865Z,1013.23
2024-01-24T09:52:47.172Z,1013.27
2024-01-24T09:53:43.859Z,1013.45
2024-01-24T09:54:43.854Z,1013.28
2024-01-24T09:55:43.809Z,1013.57
2024-01-24T09:56:43.982Z,1013.53
2024-01-24T09:57:43.807Z,1013.63
2024-01-24T09:58:43.774Z,1013.68
2024-01-24T09:59:43.801Z,1013.58
2024-01-24T10:00:43.830Z,1013.67
2024-01-24T10:01:43.805Z,1013.67
2024-01-24T10:02:43.760Z,1013.78
2024-01-24T10:03:43.852Z,1013.88
2024-01-24T10:04:43.888Z,1013.67
2024-01-24T10:05:43.745Z,1013.89
2024-01-24T10:06:43.787Z,1013.67
2024-01-24T10:07:43.745Z,1013.65
2024-01-24T10:08:43.691Z,1013.78
2024-01-24T10:09:43.809Z,1013.76
2024-01-24T10:10:43.674Z,1013.53
2024-01-24T10:11:43.660Z,1013.63
2024-01-24T10:12:43.670Z,1013.66
2024-01-24T10:13:43.649Z,1013.63
2024-01-24T10:14:43.597Z,1013.72
2024-01-24T10:15:43.668Z,1013.78
2024-01-24T10:16:44.303Z,1013.76
2024-01-24T10:17:43.731Z,1013.69
2024-01-24T10:18:43.702Z,1013.80
2024-01-24T10:19:43.726Z,1013.70
2024-01-24T10:20:43.561Z,1014.00
2024-01-24T10:21:43.611Z,1013.91
2024-01-24T10:22:43.645Z,1013.91
2024-01-24T10:23:43.521Z,1013.83
2024-01-24T10:24:43.527Z,1013.95
2024-01-24T10:25:43.561Z,1013.81
2024-01-24T10:26:43.514Z,1013.92
2024-01-24T10:27:43.688Z,1013.85
2024-01-24T10:28:43.508Z,1013.87
2024-01-24T10:29:43.457Z,1013.63
2024-01-24T10:30:43.509Z,1013.70
2024-01-24T10:31:43.531Z,1013.80
2024-01-24T10:32:43.474Z,1013.72
2024-01-24T10:33:43.490Z,1013.67
2024-01-24T10:34:43.446Z,1013.76
2024-01-24T10:35:43.424Z,1013.84
2024-01-24T10:36:44.160Z,1013.84
2024-01-24T10:37:43.388Z,1013.76
2024-01-24T10:38:43.369Z,1013.66
2024-01-24T10:39:43.379Z,1013.66
2024-01-24T10:40:43.347Z,1013.63
2024-01-24T10:41:43.352Z,1013.70
2024-01-24T10:42:43.450Z,1013.83
2024-01-24T10:43:43.340Z,1013.67
2024-01-24T10:44:43.305Z,1013.69
2024-01-24T10:45:43.331Z,1013.88
2024-01-24T10:46:43.299Z,1013.97
2024-01-24T10:47:43.310Z,1013.88
2024-01-24T10:48:43.370Z,1014.00
2024-01-24T10:49:43.350Z,1014.10
2024-01-24T10:50:43.261Z,1014.09
2024-01-24T10:51:43.280Z,1013.96
2024-01-24T10:52:43.222Z,1013.97
2024-01-24T10:53:43.254Z,1014.05
2024-01-24T10:54:43.259Z,1014.06
2024-01-24T10:55:43.188Z,1013.97
2024-01-24T10:56:43.511Z,1014.06
2024-01-24T10:57:43.591Z,1014.04
2024-01-24T10:58:43.197Z,1013.91
2024-01-24T10:59:43.153Z,1013.85
2024-01-24T11:00:43.193Z,1013.82
2024-01-24T11:01:43.204Z,1014.00
2024-01-24T11:02:43.335Z,1014.10
2024-01-24T11:03:43.186Z,1014.01
2024-01-24T11:04:43.115Z,1014.13
2024-01-24T11:05:43.185Z,1014.12
2024-01-24T11:06:43.122Z,1014.03
2024-01-24T11:07:43.101Z,1014.05
2024-01-24T11:08:47.234Z,1014.17
2024-01-24T11:09:43.104Z,1014.11
2024-01-24T11:10:43.033Z,1014.33
2024-01-24T11:11:43.023Z,1014.15
2024-01-24T11:12:43.023Z,1014.15
2024-01-24T11:13:44.012Z,1014.18
2024-01-24T11:14:43.018Z,1014.20
2024-01-24T11:15:43.006Z,1014.21
2024-01-24T11:16:42.973Z,1014.35
2024-01-24T11:17:43.036Z,1014.35
2024-01-24T11:18:43.004Z,1014.36
2024-01-24T11:19:43.071Z,1014.43
2024-01-24T11:20:42.921Z,1014.36
2024-01-24T11:21:42.991Z,1014.40
2024-01-24T11:22:42.941Z,1014.36
2024-01-24T11:23:42.899Z,1014.53
2024-01-24T11:24:42.927Z,1014.54
2024-01-24T11:25:42.872Z,1014.42
2024-01-24T11:26:42.887Z,1014.50
2024-01-24T11:27:42.908Z,1014.50
2024-01-24T11:28:42.884Z,1014.43
2024-01-24T11:29:42.852Z,1014.57
2024-01-24T11:30:42.865Z,1014.50
2024-01-24T11:31:42.818Z,1014.52
2024-01-24T11:32:42.904Z,1014.49
2024-01-24T11:33:42.869Z,1014.52
2024-01-24T11:34:42.924Z,1014.52
2024-01-24T11:35:42.782Z,1014.46
2024-01-24T11:36:42.826Z,1014.45
2024-01-24T11:37:42.750Z,1014.66
2024-01-24T11:38:42.764Z,1014.64
2024-01-24T11:39:42.744Z,1014.59
2024-01-24T11:40:42.759Z,1014.53
2024-01-24T11:41:42.795Z,1014.53
2024-01-24T11:42:42.722Z,1014.68
2024-01-24T11:43:42.723Z,1014.68
2024-01-24T11:44:42.728Z,1014.56
2024-01-24T11:45:42.708Z,1014.70
2024-01-24T11:46:42.692Z,1014.53
2024-01-24T11:47:42.788Z,1014.69
2024-01-24T11:48:42.857Z,1014.92
2024-01-24T11:49:42.697Z,1014.89
2024-01-24T11:50:42.641Z,1014.76
2024-01-24T11:51:42.682Z,1014.82
2024-01-24T11:52:42.675Z,1014.84
2024-01-24T11:53:42.609Z,1014.93
2024-01-24T11:54:42.644Z,1014.92
2024-01-24T11:55:42.648Z,1014.93
2024-01-24T11:56:42.651Z,1014.98
2024-01-24T11:57:42.615Z,1014.70
2024-01-24T11:58:42.689Z,1014.95
2024-01-24T11:59:42.631Z,1014.95
2024-01-24T12:00:42.584Z,1014.87
2024-01-24T12:01:42.537Z,1014.96
2024-01-24T12:02:42.530Z,1014.88
2024-01-24T12:03:42.552Z,1014.95
2024-01-24T12:04:42.579Z,1015.03
2024-01-24T12:05:42.502Z,1014.89
2024-01-24T12:06:42.537Z,1015.14
2024-01-24T12:07:42.509Z,1015.19